Time;durP1;ratioP1;P1;durP2;ratioP2;P2;SDS_P1;SDS_P2;PMS_P1;PMS_P2;Temp;Humidity;BMP_temperature;BMP_pressure;BME280_temperature;BME280_humidity;BME280_pressure;Samples;Min_cycle;Max_cycle;Signal;HPM_P1;HPM_P2
2021/05/05 06:55:14;;;;;;;3.93;1.47;;;9.20;99.90;;;;;;4720929;23;20700;-78
2021/05/05 06:57:41;;;;;;;2.77;1.00;;;9.00;99.90;;;;;;4986129;28;20207;-77
2021/05/05 07:00:09;;;;;;;2.90;1.13;;;8.90;99.90;;;;;;4994253;28;20637;-79
2021/05/05 07:02:36;;;;;;;3.40;1.07;;;8.70;99.90;;;;;;4993765;28;20240;-77
2021/05/05 07:05:02;;;;;;;2.47;0.77;;;8.50;99.90;;;;;;4994502;28;20207;-75
2021/05/05 07:07:29;;;;;;;1.57;0.63;;;8.10;99.90;;;;;;4991802;28;20213;-76
2021/05/05 07:09:56;;;;;;;2.50;0.50;;;7.40;99.90;;;;;;4993117;28;20238;-78
2021/05/05 07:12:23;;;;;;;0.60;0.57;;;6.90;99.90;;;;;;4992694;28;20226;-74
2021/05/05 07:14:49;;;;;;;0.93;0.50;;;6.70;99.90;;;;;;4993003;28;20206;-77
2021/05/05 07:17:16;;;;;;;0.60;0.50;;;6.60;99.90;;;;;;4992253;28;20302;-79
2021/05/05 07:19:42;;;;;;;1.40;0.70;;;6.70;99.90;;;;;;4992926;28;20238;-77
2021/05/05 07:22:08;;;;;;;3.37;0.60;;;6.60;99.90;;;;;;4992706;28;20313;-80
2021/05/05 07:24:35;;;;;;;0.80;0.70;;;6.80;99.90;;;;;;4992685;28;20256;-82
2021/05/05 07:27:01;;;;;;;0.73;0.37;;;7.00;99.90;;;;;;4992708;28;20593;-80
2021/05/05 07:29:28;;;;;;;0.60;0.43;;;7.20;99.90;;;;;;4994366;28;20210;-78
2021/05/05 07:31:55;;;;;;;3.87;1.00;;;7.20;99.90;;;;;;4992424;28;20734;-78
2021/05/05 07:34:23;;;;;;;3.73;0.80;;;7.50;99.90;;;;;;4992572;28;20284;-78
2021/05/05 07:36:50;;;;;;;0.97;0.60;;;7.60;99.90;;;;;;4992787;28;20234;-77
2021/05/05 07:45:11;;;;;;;3.40;0.70;;;8.30;99.90;;;;;;4992464;28;20210;-77
2021/05/05 07:47:39;;;;;;;0.87;0.60;;;8.90;99.90;;;;;;4992191;28;20293;-78
2021/05/05 07:50:09;;;;;;;2.50;1.13;;;9.70;99.90;;;;;;4992732;28;20210;-78
2021/05/05 07:52:36;;;;;;;2.30;0.73;;;10.60;99.90;;;;;;4992099;28;20233;-78
2021/05/05 07:55:02;;;;;;;4.67;0.70;;;11.30;99.90;;;;;;4992132;28;20218;-78
2021/05/05 07:57:29;;;;;;;1.20;0.57;;;12.40;99.90;;;;;;4992374;28;20206;-78
2021/05/05 07:59:56;;;;;;;1.67;0.50;;;13.40;99.90;;;;;;4992373;28;20273;-78
2021/05/05 08:02:22;;;;;;;1.67;1.00;;;13.90;99.90;;;;;;4992114;28;20234;-78
2021/05/05 08:04:49;;;;;;;2.73;0.87;;;14.50;99.90;;;;;;4992452;28;20202;-80
2021/05/05 08:07:17;;;;;;;2.23;0.90;;;14.70;99.90;;;;;;4994150;28;20210;-78
2021/05/05 08:09:44;;;;;;;2.87;0.80;;;14.60;99.90;;;;;;4992885;28;20206;-79
2021/05/05 08:12:11;;;;;;;4.13;1.10;;;14.50;99.90;;;;;;4991861;28;20627;-78
2021/05/05 08:14:37;;;;;;;3.50;1.27;;;13.70;99.90;;;;;;4992121;28;20213;-79
2021/05/05 08:17:05;;;;;;;2.10;1.07;;;12.80;99.90;;;;;;4991920;28;20202;-78
2021/05/05 08:19:31;;;;;;;1.10;0.70;;;12.60;99.90;;;;;;4991745;28;20241;-78
2021/05/05 08:21:58;;;;;;;2.07;0.80;;;12.40;99.90;;;;;;4991676;28;20226;-79
2021/05/05 08:24:24;;;;;;;2.03;0.97;;;12.30;99.90;;;;;;4991922;28;20213;-81
2021/05/05 08:26:50;;;;;;;2.33;1.30;;;12.30;99.90;;;;;;4985424;28;20206;-78
2021/05/05 08:29:17;;;;;;;3.20;0.90;;;12.20;99.90;;;;;;4973476;28;20230;-78
2021/05/05 08:31:43;;;;;;;5.17;1.30;;;12.00;99.90;;;;;;4979045;28;20218;-78
2021/05/05 08:34:10;;;;;;;2.87;0.97;;;12.30;99.90;;;;;;4991729;28;20262;-80
2021/05/05 08:36:37;;;;;;;3.13;0.87;;;12.90;99.90;;;;;;4991644;28;20203;-79
2021/05/05 08:39:04;;;;;;;2.43;1.00;;;13.20;99.90;;;;;;4991537;28;20244;-80
2021/05/05 08:41:32;;;;;;;6.63;1.30;;;13.40;99.90;;;;;;4991703;28;20238;-80
2021/05/05 08:43:58;;;;;;;1.90;0.90;;;13.00;99.90;;;;;;4992151;28;20677;-79
2021/05/05 08:46:25;;;;;;;3.13;0.80;;;13.00;99.90;;;;;;4992086;28;20206;-81
2021/05/05 08:48:51;;;;;;;1.43;0.90;;;13.20;99.90;;;;;;4991950;28;20206;-78
2021/05/05 08:51:18;;;;;;;3.17;1.40;;;12.80;99.90;;;;;;4991941;28;20212;-79
2021/05/05 08:53:44;;;;;;;5.63;0.80;;;13.10;99.90;;;;;;4992128;28;20728;-82
2021/05/05 08:56:12;;;;;;;4.27;0.70;;;12.80;99.90;;;;;;4993527;28;20214;-80
2021/05/05 08:58:38;;;;;;;2.47;0.83;;;12.60;99.90;;;;;;4996313;28;20243;-79
2021/05/05 09:01:05;;;;;;;1.80;0.87;;;12.40;99.90;;;;;;4994739;28;20217;-80
2021/05/05 09:03:33;;;;;;;2.83;0.60;;;12.30;99.90;;;;;;4999404;28;20240;-78
2021/05/05 09:06:00;;;;;;;1.23;0.67;;;12.00;99.90;;;;;;5002298;28;20207;-78
2021/05/05 09:08:30;;;;;;;1.57;0.60;;;11.30;99.90;;;;;;5002039;28;20206;-78
2021/05/05 09:10:59;;;;;;;5.03;0.70;;;10.50;99.90;;;;;;4999556;28;20213;-78
2021/05/05 09:13:50;;;;;;;1.40;0.43;;;10.20;99.90;;;;;;5000050;28;20213;-78
2021/05/05 09:16:22;;;;;;;1.33;0.50;;;10.10;99.90;;;;;;5001495;28;20245;-78
2021/05/05 09:19:00;;;;;;;2.70;0.50;;;10.30;99.90;;;;;;5002421;28;20320;-79
2021/05/05 09:21:29;;;;;;;2.70;0.90;;;11.00;99.90;;;;;;4998326;28;20222;-80
2021/05/05 09:24:18;;;;;;;8.37;1.20;;;11.60;99.90;;;;;;4995415;28;20210;-79
2021/05/05 09:26:45;;;;;;;1.80;0.63;;;12.70;99.90;;;;;;4995944;28;20217;-80
2021/05/05 09:29:11;;;;;;;3.20;1.07;;;13.70;99.90;;;;;;4996608;28;20206;-77
2021/05/05 09:31:38;;;;;;;1.73;0.80;;;14.40;99.30;;;;;;4996105;28;20272;-79
2021/05/05 09:34:08;;;;;;;3.80;0.93;;;14.70;99.90;;;;;;4996311;28;20210;-79
2021/05/05 09:36:35;;;;;;;2.30;0.50;;;15.10;99.90;;;;;;4996211;28;20209;-78
2021/05/05 09:39:04;;;;;;;5.10;1.00;;;14.90;98.50;;;;;;4995894;28;20238;-80
2021/05/05 09:41:32;;;;;;;1.73;0.70;;;14.80;98.30;;;;;;4995659;28;20237;-79
2021/05/05 09:44:01;;;;;;;1.20;0.63;;;14.90;99.30;;;;;;4996255;28;20213;-79
2021/05/05 09:46:41;;;;;;;1.27;0.50;;;14.40;98.40;;;;;;4995754;28;20214;-78
2021/05/05 09:49:33;;;;;;;3.07;0.70;;;13.60;97.90;;;;;;4990582;28;20199;-78
2021/05/05 09:52:02;;;;;;;0.90;0.50;;;13.10;98.90;;;;;;4975950;28;20230;-77
2021/05/05 09:54:35;;;;;;;4.60;0.87;;;12.80;99.70;;;;;;4995846;28;20242;-79
2021/05/05 09:57:17;;;;;;;3.10;0.87;;;12.70;99.90;;;;;;4995555;28;20382;-78
2021/05/05 10:00:05;;;;;;;4.43;0.60;;;12.60;99.90;;;;;;4997196;28;20237;-80
2021/05/05 10:02:39;;;;;;;1.63;0.60;;;12.90;99.90;;;;;;4996834;28;20588;-77
2021/05/05 10:05:08;;;;;;;2.97;0.67;;;12.90;99.90;;;;;;4995630;28;20248;-77
2021/05/05 10:07:49;;;;;;;3.07;0.80;;;12.70;99.90;;;;;;4994895;28;20253;-78
2021/05/05 10:10:16;;;;;;;1.20;0.63;;;12.70;99.90;;;;;;4995160;28;20246;-78
2021/05/05 10:12:44;;;;;;;2.73;0.50;;;12.80;99.90;;;;;;4995071;28;20233;-78
2021/05/05 10:15:12;;;;;;;3.37;0.50;;;12.60;98.80;;;;;;4995824;28;20229;-78
2021/05/05 10:17:39;;;;;;;2.30;0.67;;;12.40;99.60;;;;;;4995709;28;20211;-78
2021/05/05 10:20:07;;;;;;;2.70;0.50;;;12.30;98.80;;;;;;4995156;28;20593;-79
2021/05/05 10:22:34;;;;;;;2.47;0.57;;;12.20;99.90;;;;;;4995088;28;20234;-78
2021/05/05 10:25:01;;;;;;;3.53;0.83;;;12.30;99.80;;;;;;4995094;28;20699;-78
2021/05/05 10:27:27;;;;;;;0.67;0.50;;;12.50;99.90;;;;;;4995234;28;20202;-78
2021/05/05 10:29:55;;;;;;;2.63;0.63;;;12.50;99.10;;;;;;4995103;28;20210;-78
2021/05/05 10:32:22;;;;;;;1.60;0.50;;;12.40;98.00;;;;;;4994970;28;20586;-78
2021/05/05 10:34:51;;;;;;;1.03;0.47;;;12.00;96.70;;;;;;4995065;28;20214;-78
2021/05/05 10:37:18;;;;;;;0.70;0.50;;;11.90;97.40;;;;;;4994756;28;20221;-79
2021/05/05 10:39:46;;;;;;;3.63;0.70;;;11.70;96.40;;;;;;4994823;28;20234;-78
2021/05/05 10:42:21;;;;;;;1.50;0.57;;;11.80;98.80;;;;;;4996734;28;20222;-78
2021/05/05 10:44:52;;;;;;;1.63;0.80;;;12.10;97.90;;;;;;4994585;28;20285;-79
2021/05/05 10:47:27;;;;;;;2.53;0.83;;;12.40;98.50;;;;;;4994623;28;20237;-78
2021/05/05 10:50:14;;;;;;;1.37;0.70;;;12.70;98.10;;;;;;4997250;28;20202;-78
2021/05/05 10:53:00;;;;;;;2.20;0.70;;;12.90;97.60;;;;;;4994727;28;20300;-78
2021/05/05 10:55:45;;;;;;;2.73;0.70;;;12.80;97.50;;;;;;4994402;28;20288;-78
2021/05/05 10:58:14;;;;;;;3.90;0.80;;;12.90;95.30;;;;;;4994301;28;20230;-77
2021/05/05 11:00:49;;;;;;;5.93;0.60;;;12.90;94.90;;;;;;4994673;28;20234;-79
2021/05/05 11:03:17;;;;;;;2.73;0.40;;;12.90;95.40;;;;;;4994647;28;20692;-78
2021/05/05 11:05:47;;;;;;;2.47;0.40;;;13.00;92.80;;;;;;4994208;28;20210;-78
2021/05/05 11:08:28;;;;;;;0.60;0.40;;;13.10;93.10;;;;;;4982370;28;20236;-76
2021/05/05 11:10:56;;;;;;;2.50;0.60;;;13.10;91.10;;;;;;4974194;28;20207;-80
2021/05/05 11:13:42;;;;;;;4.37;0.60;;;13.00;92.90;;;;;;4980317;28;20227;-78
2021/05/05 11:16:09;;;;;;;2.97;0.50;;;12.80;92.20;;;;;;4978472;28;20298;-79
2021/05/05 11:18:49;;;;;;;1.13;0.53;;;12.70;92.10;;;;;;4986911;28;20238;-82
2021/05/05 11:21:43;;;;;;;1.07;0.47;;;12.80;93.70;;;;;;4984794;28;20202;-82
2021/05/05 11:24:33;;;;;;;2.37;0.60;;;13.20;93.60;;;;;;4985707;28;20199;-79
2021/05/05 11:27:00;;;;;;;0.90;0.53;;;13.70;93.20;;;;;;4985578;28;20207;-80
2021/05/05 11:29:38;;;;;;;2.07;0.60;;;14.00;92.40;;;;;;4987807;28;20666;-80
2021/05/05 11:32:07;;;;;;;1.27;0.60;;;14.40;93.10;;;;;;4980107;28;22422;-75
2021/05/05 11:34:38;;;;;;;2.40;0.60;;;14.40;91.40;;;;;;4987996;28;20207;-77
2021/05/05 11:37:10;;;;;;;1.40;0.63;;;14.10;92.10;;;;;;4981934;28;20207;-78
2021/05/05 11:39:38;;;;;;;1.37;0.50;;;13.40;96.10;;;;;;4985951;28;20308;-78
2021/05/05 11:42:06;;;;;;;3.90;0.40;;;12.70;99.70;;;;;;4980046;28;20234;-79
2021/05/05 11:44:38;;;;;;;1.83;0.50;;;12.30;98.00;;;;;;4980996;28;20591;-80
2021/05/05 11:47:06;;;;;;;1.43;0.50;;;12.10;98.90;;;;;;4981037;28;20681;-81
2021/05/05 11:49:36;;;;;;;2.73;0.50;;;11.90;97.90;;;;;;4986050;28;20259;-81
2021/05/05 11:52:23;;;;;;;6.27;0.63;;;12.10;97.70;;;;;;4993303;28;20225;-78
2021/05/05 11:54:50;;;;;;;0.80;0.30;;;12.50;97.30;;;;;;4987806;28;20290;-80
2021/05/05 11:57:18;;;;;;;1.50;0.50;;;13.00;96.40;;;;;;4988259;28;20215;-81
2021/05/05 11:59:45;;;;;;;2.10;0.50;;;13.30;94.40;;;;;;4983504;28;20241;-79
2021/05/05 12:02:12;;;;;;;5.43;0.50;;;13.40;93.60;;;;;;4984982;28;20316;-80
2021/05/05 12:04:40;;;;;;;1.33;0.43;;;13.40;93.40;;;;;;4987475;28;20213;-79
2021/05/05 12:07:08;;;;;;;0.70;0.50;;;13.30;90.10;;;;;;4989251;28;20581;-81
2021/05/05 12:09:36;;;;;;;2.27;0.40;;;13.40;92.00;;;;;;4986605;28;20627;-80
2021/05/05 12:12:22;;;;;;;1.90;0.60;;;13.50;92.00;;;;;;4982720;28;20218;-78
2021/05/05 12:14:50;;;;;;;1.80;0.60;;;13.60;91.90;;;;;;4986271;28;20895;-78
2021/05/05 12:17:24;;;;;;;1.50;0.50;;;13.80;91.80;;;;;;4983515;28;20213;-79
2021/05/05 12:20:07;;;;;;;2.20;0.80;;;14.20;91.30;;;;;;4981117;28;20237;-79
2021/05/05 12:22:34;;;;;;;3.77;1.10;;;14.50;90.80;;;;;;4991670;28;20224;-78
2021/05/05 12:25:09;;;;;;;0.87;0.60;;;14.30;90.10;;;;;;4990846;28;20670;-77
2021/05/05 12:27:37;;;;;;;4.27;0.70;;;13.80;94.10;;;;;;4992881;28;20561;-79
2021/05/05 12:30:05;;;;;;;1.60;0.60;;;13.40;96.60;;;;;;4994424;28;20203;-76
2021/05/05 12:32:42;;;;;;;3.40;0.70;;;13.30;95.90;;;;;;4996835;28;20218;-79
2021/05/05 12:35:11;;;;;;;1.40;0.50;;;13.20;91.80;;;;;;4997118;28;20209;-82
2021/05/05 12:37:38;;;;;;;2.17;0.60;;;13.20;91.90;;;;;;4997040;28;20221;-80
2021/05/05 12:40:07;;;;;;;1.87;0.70;;;13.20;91.70;;;;;;4997022;28;20245;-79
2021/05/05 12:42:33;;;;;;;0.90;0.50;;;13.20;92.70;;;;;;4996982;28;20231;-78
2021/05/05 12:45:07;;;;;;;1.30;0.43;;;13.40;92.80;;;;;;4996763;28;20202;-81
2021/05/05 12:47:33;;;;;;;6.17;0.80;;;13.60;91.80;;;;;;4997011;28;20206;-80
2021/05/05 12:49:59;;;;;;;1.43;0.50;;;13.70;88.90;;;;;;4996982;28;20206;-78
2021/05/05 12:52:28;;;;;;;1.17;0.50;;;13.60;87.80;;;;;;4997147;28;20569;-83
2021/05/05 12:54:57;;;;;;;1.30;0.70;;;13.50;89.50;;;;;;4996692;28;20261;-76
2021/05/05 12:57:23;;;;;;;1.10;0.50;;;13.20;86.30;;;;;;4997067;28;20297;-82
2021/05/05 12:59:51;;;;;;;1.47;0.50;;;12.90;89.50;;;;;;4997104;28;20621;-79
2021/05/05 13:02:21;;;;;;;1.40;0.70;;;12.80;89.90;;;;;;4996724;28;20258;-80
2021/05/05 13:04:47;;;;;;;2.53;0.60;;;12.80;90.50;;;;;;4996628;28;20608;-81
2021/05/05 13:07:27;;;;;;;1.77;0.57;;;13.10;91.00;;;;;;4997052;28;20677;-80
2021/05/05 13:10:10;;;;;;;1.33;0.70;;;13.20;90.20;;;;;;4996424;28;20266;-78
2021/05/05 13:12:40;;;;;;;2.60;0.70;;;13.30;90.60;;;;;;4991055;28;20234;-83
2021/05/05 13:15:27;;;;;;;1.50;0.47;;;13.30;86.50;;;;;;4996718;28;20210;-82
2021/05/05 13:18:14;;;;;;;0.80;0.50;;;13.30;86.60;;;;;;4996606;28;20211;-79
2021/05/05 13:20:53;;;;;;;2.13;0.90;;;13.30;86.30;;;;;;4996454;28;20206;-80
2021/05/05 13:31:52;;;;;;;2.80;0.60;;;13.20;87.40;;;;;;4994469;28;20226;-78
2021/05/05 13:34:19;;;;;;;2.30;0.60;;;13.00;86.40;;;;;;4994892;28;20212;-80
2021/05/05 13:36:56;;;;;;;2.33;0.57;;;13.20;88.10;;;;;;4994848;28;20210;-82
2021/05/05 13:39:25;;;;;;;2.70;0.83;;;13.40;86.00;;;;;;4994152;28;20226;-79
2021/05/05 13:41:55;;;;;;;2.10;0.70;;;13.70;87.90;;;;;;4994571;28;20233;-78
2021/05/05 13:44:27;;;;;;;2.20;0.57;;;13.90;85.00;;;;;;4996560;28;20213;-77
2021/05/05 13:47:07;;;;;;;2.13;0.60;;;14.00;84.60;;;;;;4996667;28;20297;-77
2021/05/05 13:49:36;;;;;;;1.23;0.80;;;14.20;81.00;;;;;;4996358;28;20210;-79
2021/05/05 13:52:04;;;;;;;1.43;0.50;;;14.00;82.40;;;;;;4996183;28;20226;-77
2021/05/05 13:54:32;;;;;;;1.33;0.60;;;13.90;83.70;;;;;;4996008;28;20214;-77
2021/05/05 13:57:02;;;;;;;0.83;0.53;;;13.90;81.60;;;;;;4995803;28;20217;-77
2021/05/05 13:59:29;;;;;;;2.70;0.50;;;14.00;81.80;;;;;;4995724;28;20812;-77
2021/05/05 14:01:55;;;;;;;1.27;0.70;;;13.90;81.10;;;;;;4995950;28;20234;-77
2021/05/05 14:04:21;;;;;;;1.27;0.50;;;13.70;81.30;;;;;;4995876;28;20226;-77
2021/05/05 14:06:49;;;;;;;1.20;0.50;;;13.80;80.30;;;;;;4995703;28;20261;-79
2021/05/05 14:09:15;;;;;;;1.40;0.60;;;13.70;78.30;;;;;;4995742;28;20213;-77
2021/05/05 14:11:42;;;;;;;0.73;0.50;;;13.70;76.50;;;;;;4995453;28;20227;-78
2021/05/05 14:14:09;;;;;;;0.60;0.50;;;13.70;76.80;;;;;;4995939;28;20264;-76
2021/05/05 14:16:35;;;;;;;0.77;0.57;;;13.70;78.40;;;;;;4996018;28;20264;-78
2021/05/05 14:19:02;;;;;;;3.23;0.90;;;13.70;78.80;;;;;;4995733;28;20230;-82
2021/05/05 14:21:29;;;;;;;0.80;0.60;;;13.70;79.60;;;;;;4995585;28;20584;-81
2021/05/05 14:23:55;;;;;;;1.13;0.70;;;13.70;79.30;;;;;;4995568;28;20649;-79
2021/05/05 14:26:21;;;;;;;2.20;0.60;;;13.80;80.50;;;;;;4995222;28;20206;-78
2021/05/05 14:28:49;;;;;;;0.90;0.60;;;13.80;81.40;;;;;;4995698;28;20660;-81
2021/05/05 14:31:15;;;;;;;3.50;0.70;;;13.80;78.70;;;;;;4995519;28;20206;-77
2021/05/05 14:33:42;;;;;;;1.37;0.70;;;13.70;80.40;;;;;;4995409;28;20213;-80
2021/05/05 14:36:09;;;;;;;3.70;0.60;;;13.60;81.90;;;;;;4995442;28;20546;-79
2021/05/05 14:38:38;;;;;;;1.47;0.70;;;13.70;82.30;;;;;;4995197;28;20226;-79
2021/05/05 14:41:07;;;;;;;1.80;0.70;;;13.90;80.60;;;;;;4995206;28;20783;-78
2021/05/05 14:43:38;;;;;;;2.90;0.60;;;14.10;81.40;;;;;;4995283;28;20214;-78
2021/05/05 14:46:14;;;;;;;1.90;0.60;;;14.30;78.20;;;;;;4995063;28;20214;-81
2021/05/05 14:48:40;;;;;;;1.00;0.70;;;14.40;79.40;;;;;;4995815;28;20210;-82
2021/05/05 14:51:07;;;;;;;2.00;0.77;;;14.30;78.60;;;;;;4997742;28;20661;-79
2021/05/05 14:53:33;;;;;;;1.63;0.50;;;14.00;76.00;;;;;;4996626;28;20202;-80
2021/05/05 14:55:59;;;;;;;1.53;0.57;;;13.40;77.00;;;;;;4994611;28;20214;-78
2021/05/05 14:58:29;;;;;;;2.00;0.60;;;13.30;79.00;;;;;;4994691;28;20206;-79
2021/05/05 15:00:55;;;;;;;1.43;0.50;;;13.40;79.70;;;;;;4994720;28;20665;-77
2021/05/05 15:03:23;;;;;;;1.30;0.60;;;13.50;79.00;;;;;;4982710;28;20218;-78
2021/05/05 15:05:50;;;;;;;1.97;0.73;;;13.40;78.50;;;;;;4987321;28;20202;-77
2021/05/05 15:08:17;;;;;;;1.07;0.63;;;13.50;79.00;;;;;;4988774;28;20202;-75
2021/05/05 15:11:13;;;;;;;1.60;0.60;;;13.40;78.30;;;;;;4989268;28;20214;-78
2021/05/05 15:13:45;;;;;;;1.90;0.60;;;13.30;79.80;;;;;;4982702;28;20207;-78
2021/05/05 15:30:13;;;;;;;1.40;0.63;;;13.40;80.70;;;;;;4999921;28;20208;-77
2021/05/05 15:35:30;;;;;;;2.13;0.60;;;13.60;80.20;;;;;;4993742;28;20221;-78
2021/05/05 15:38:00;;;;;;;1.23;0.60;;;13.80;80.20;;;;;;4985170;28;20215;-77
2021/05/05 15:40:43;;;;;;;0.70;0.50;;;13.80;78.90;;;;;;4974422;28;20305;-79
2021/05/05 15:43:35;;;;;;;1.27;0.60;;;13.70;80.40;;;;;;4974260;28;20290;-78
2021/05/05 15:46:15;;;;;;;2.10;0.90;;;13.40;78.40;;;;;;4979605;28;20739;-79
2021/05/05 15:48:41;;;;;;;1.57;0.90;;;13.30;80.00;;;;;;4993727;28;20217;-78
2021/05/05 15:51:09;;;;;;;3.20;0.80;;;13.30;79.60;;;;;;4993386;28;20211;-79
2021/05/05 15:53:38;;;;;;;1.87;0.60;;;13.40;80.80;;;;;;4993933;28;20670;-79
2021/05/05 15:56:06;;;;;;;1.97;0.50;;;13.50;79.10;;;;;;4992810;28;20673;-79
2021/05/05 15:58:36;;;;;;;2.03;0.50;;;13.40;79.20;;;;;;4993057;28;20202;-78
2021/05/05 16:01:07;;;;;;;0.70;0.50;;;13.30;79.30;;;;;;4993616;28;20206;-79
2021/05/05 16:03:53;;;;;;;1.23;0.67;;;13.30;79.00;;;;;;4993556;28;20293;-78
2021/05/05 16:12:00;;;;;;;1.63;0.80;;;13.30;77.00;;;;;;4955528;28;20228;-77
2021/05/05 16:14:41;;;;;;;4.00;0.90;;;13.20;80.10;;;;;;4993085;28;20675;-77
2021/05/05 16:17:07;;;;;;;2.23;0.87;;;13.20;80.90;;;;;;4991900;28;20214;-77
2021/05/05 16:19:37;;;;;;;1.30;0.93;;;13.20;80.40;;;;;;4992582;28;20342;-77
2021/05/05 16:22:07;;;;;;;2.70;0.87;;;13.30;80.10;;;;;;4992975;28;20230;-76
2021/05/05 16:25:08;;;;;;;4.40;0.60;;;13.30;80.40;;;;;;4992633;28;20305;-77
2021/05/05 16:49:42;;;;;;;2.67;1.07;;;13.50;77.40;;;;;;4992915;28;20211;-80
2021/05/05 16:52:28;;;;;;;1.83;0.97;;;13.30;77.90;;;;;;4992974;28;20317;-78
2021/05/05 16:54:56;;;;;;;0.93;0.63;;;13.20;79.60;;;;;;4993572;28;20276;-78
2021/05/05 16:57:26;;;;;;;3.43;1.03;;;13.20;79.80;;;;;;4992803;28;20214;-77
2021/05/05 17:08:11;;;;;;;0.63;0.60;;;13.40;81.90;;;;;;4993252;28;20250;-78
2021/05/05 17:10:38;;;;;;;3.10;0.80;;;13.30;79.90;;;;;;4993050;28;20301;-78
2021/05/05 17:13:05;;;;;;;0.90;0.60;;;13.10;80.10;;;;;;4992264;28;20231;-80
2021/05/05 17:15:36;;;;;;;0.97;0.53;;;13.10;81.20;;;;;;4992718;28;20207;-78
2021/05/05 17:18:10;;;;;;;1.33;0.70;;;13.00;80.70;;;;;;4995902;28;20564;-78
2021/05/05 17:20:45;;;;;;;2.83;0.77;;;13.20;80.30;;;;;;4996841;28;20241;-78
2021/05/05 17:23:16;;;;;;;2.00;0.77;;;13.20;81.10;;;;;;4996671;28;20316;-77
2021/05/05 17:25:50;;;;;;;1.73;0.80;;;13.20;81.50;;;;;;4996448;28;20206;-78
2021/05/05 17:28:28;;;;;;;1.70;0.87;;;13.10;83.00;;;;;;4996627;28;20728;-79
2021/05/05 18:12:25;;;;;;;1.70;0.70;;;12.50;90.10;;;;;;4995589;28;20269;-77
2021/05/05 18:14:56;;;;;;;2.63;1.00;;;12.60;90.60;;;;;;4995656;28;20212;-77
2021/05/05 18:17:35;;;;;;;2.57;0.90;;;12.60;89.80;;;;;;4995537;28;20265;-79
2021/05/05 18:20:04;;;;;;;3.60;1.50;;;12.10;92.10;;;;;;4995409;28;20649;-79
2021/05/05 18:22:42;;;;;;;1.70;1.00;;;11.20;95.90;;;;;;4995508;28;20222;-77
2021/05/05 18:27:55;;;;;;;1.60;0.90;;;9.80;99.90;;;;;;4994721;28;20573;-79
2021/05/05 18:30:23;;;;;;;0.97;0.60;;;9.50;99.90;;;;;;4995504;28;20210;-77
2021/05/05 18:32:50;;;;;;;1.57;0.73;;;9.30;99.90;;;;;;4995525;28;20222;-75
2021/05/05 18:35:16;;;;;;;0.83;0.60;;;8.90;99.90;;;;;;4995421;28;20272;-77
2021/05/05 18:37:42;;;;;;;1.70;0.70;;;8.70;99.90;;;;;;4995392;28;20218;-78
2021/05/05 18:40:13;;;;;;;1.60;1.00;;;8.50;99.90;;;;;;4995232;28;20245;-77
2021/05/05 18:42:42;;;;;;;2.07;0.70;;;8.40;99.90;;;;;;4994597;28;20593;-77
2021/05/05 19:13:19;;;;;;;1.53;0.77;;;8.70;99.90;;;;;;4994391;28;20225;-77
2021/05/05 20:33:29;;;;;;;2.20;1.83;;;8.70;99.90;;;;;;4984832;28;20237;-77
2021/05/05 20:50:12;;;;;;;1.90;1.10;;;8.60;99.90;;;;;;4989638;28;20202;-77
2021/05/05 21:06:02;;;;;;;1.60;1.07;;;8.70;99.90;;;;;;4975126;28;20229;-77
2021/05/05 21:09:38;;;;;;;3.03;1.60;;;8.20;99.90;;;;;;4983151;28;20207;-78
